Time;durP1;ratioP1;P1;durP2;ratioP2;P2;SDS_P1;SDS_P2;PMS_P1;PMS_P2;Temp;Humidity;BMP_temperature;BMP_pressure;BME280_temperature;BME280_humidity;BME280_pressure;Samples;Min_cycle;Max_cycle;Signal;HPM_P1;HPM_P2
2022/01/02 00:01:20;;;;;;;;;28.50;26.25;;;;;-147.17;100.00;49847.97;4906113;28;51284;-61
2022/01/02 00:03:51;;;;;;;;;32.75;31.75;;;;;-147.17;100.00;49818.44;4903252;28;50971;-61
2022/01/02 00:06:25;;;;;;;;;29.75;27.25;;;;;-147.17;100.00;49863.72;4907715;28;51243;-60
2022/01/02 00:09:01;;;;;;;;;30.00;27.50;;;;;-147.17;100.00;49851.91;4904870;28;51874;-61
2022/01/02 00:11:27;;;;;;;;;30.50;29.25;;;;;-147.17;100.00;49842.06;4905055;28;51005;-61
2022/01/02 00:13:56;;;;;;;;;30.00;29.00;;;;;-147.17;100.00;49855.84;4904614;28;51300;-60
2022/01/02 00:16:24;;;;;;;;;28.00;24.50;;;;;-147.17;100.00;49851.91;4903460;28;51321;-62
2022/01/02 00:19:03;;;;;;;;;30.00;27.25;;;;;-147.17;100.00;49836.16;4904640;28;51229;-65
2022/01/02 00:21:32;;;;;;;;;29.25;28.50;;;;;-147.17;100.00;49798.75;4907319;28;51211;-60
2022/01/02 00:24:03;;;;;;;;;28.25;27.50;;;;;-147.17;100.00;49810.56;4906119;28;51244;-63
2022/01/02 00:26:45;;;;;;;;;32.50;31.75;;;;;-147.17;100.00;49816.47;4905820;28;51430;-65
2022/01/02 00:29:12;;;;;;;;;27.75;27.00;;;;;-147.17;100.00;49810.56;4905930;28;53419;-64
2022/01/02 00:31:41;;;;;;;;;28.25;27.25;;;;;-147.17;100.00;49840.09;4902740;28;51113;-61
2022/01/02 00:34:09;;;;;;;;;29.25;28.75;;;;;-147.17;100.00;49844.03;4902068;28;51175;-62
2022/01/02 00:36:36;;;;;;;;;29.75;26.50;;;;;-147.17;100.00;49828.28;4910170;28;51171;-61
2022/01/02 00:39:04;;;;;;;;;30.50;29.50;;;;;-147.17;100.00;49798.75;4908375;28;51232;-62
2022/01/02 00:41:54;;;;;;;;;27.00;25.00;;;;;-147.17;100.00;49832.22;4907199;28;51236;-63
2022/01/02 00:44:19;;;;;;;;;28.50;27.00;;;;;-147.17;100.00;49828.28;4909087;28;51282;-60
2022/01/02 00:47:20;;;;;;;;;25.75;23.25;;;;;-147.17;100.00;49844.03;4910244;28;51212;-60
2022/01/02 00:50:14;;;;;;;;;27.50;27.00;;;;;-147.17;100.00;49777.13;4899658;28;51317;-60
2022/01/02 00:52:42;;;;;;;;;26.50;24.50;;;;;-147.17;100.00;49844.03;4916684;28;51153;-60
2022/01/02 00:55:14;;;;;;;;;27.50;27.25;;;;;-147.17;100.00;49836.16;4912246;28;50910;-60
2022/01/02 00:57:42;;;;;;;;;28.25;27.50;;;;;-147.17;100.00;49828.28;4898677;28;51507;-60
2022/01/02 01:00:08;;;;;;;;;28.25;28.00;;;;;-147.17;100.00;49828.28;4909511;28;52067;-60
2022/01/02 01:02:55;;;;;;;;;28.00;27.75;;;;;-147.17;100.00;49816.47;4908716;28;50962;-60
2022/01/02 01:05:28;;;;;;;;;23.00;22.00;;;;;-147.17;100.00;49846.00;4905717;28;51046;-61
2022/01/02 01:07:59;;;;;;;;;27.25;25.75;;;;;-147.17;100.00;49851.91;4904318;28;50909;-61
2022/01/02 01:10:28;;;;;;;;;26.50;25.25;;;;;-147.17;100.00;49853.88;4901440;28;51955;-61
2022/01/02 01:12:56;;;;;;;;;22.75;21.50;;;;;-147.17;100.00;49832.22;4904230;28;50912;-60
2022/01/02 01:15:24;;;;;;;;;24.75;24.25;;;;;-147.17;100.00;49828.28;4898239;28;50842;-62
2022/01/02 01:17:55;;;;;;;;;29.25;27.50;;;;;-147.17;100.00;49855.84;4910659;28;50973;-60
2022/01/02 01:20:22;;;;;;;;;26.75;25.00;;;;;-147.17;100.00;49863.72;4909944;28;52842;-60
2022/01/02 01:22:49;;;;;;;;;25.00;25.00;;;;;-147.17;100.00;49844.03;4897784;28;51084;-61
2022/01/02 01:25:17;;;;;;;;;23.00;22.25;;;;;-147.17;100.00;49859.78;4911994;28;51275;-62
2022/01/02 01:27:44;;;;;;;;;20.00;19.25;;;;;-147.17;100.00;49836.16;4911157;28;50937;-61
2022/01/02 01:30:11;;;;;;;;;23.00;23.00;;;;;-147.17;100.00;49863.72;4898290;28;51474;-61
2022/01/02 01:32:37;;;;;;;;;24.25;22.25;;;;;-147.17;100.00;49851.91;4913773;28;51006;-62
2022/01/02 01:35:04;;;;;;;;;22.75;22.75;;;;;-147.17;100.00;49844.03;4905305;28;51254;-62
2022/01/02 01:37:30;;;;;;;;;23.75;23.50;;;;;-147.17;100.00;49851.91;4904245;28;51429;-61
2022/01/02 01:39:55;;;;;;;;;24.25;24.25;;;;;-147.17;100.00;49822.38;4905661;28;54176;-62
2022/01/02 01:42:32;;;;;;;;;20.50;20.25;;;;;-147.17;100.00;49826.31;4904485;28;51682;-61
2022/01/02 01:45:28;;;;;;;;;23.50;22.75;;;;;-147.17;100.00;49863.72;4898315;28;51037;-61
2022/01/02 01:47:55;;;;;;;;;22.50;22.25;;;;;-147.17;100.00;49844.03;4909893;28;51473;-61
2022/01/02 01:50:24;;;;;;;;;23.75;22.75;;;;;-147.17;100.00;49857.81;4909024;28;51118;-61
2022/01/02 01:52:50;;;;;;;;;28.00;25.25;;;;;-147.17;100.00;49828.28;4913008;28;51036;-61
2022/01/02 01:55:16;;;;;;;;;20.50;20.00;;;;;-147.17;100.00;49855.84;4906988;28;51223;-61
2022/01/02 01:57:43;;;;;;;;;27.25;25.25;;;;;-147.17;100.00;49851.91;4897502;28;51711;-61
2022/01/02 02:00:13;;;;;;;;;28.50;24.75;;;;;-147.17;100.00;49851.91;4907533;28;51147;-61
2022/01/02 02:02:39;;;;;;;;;24.75;22.25;;;;;-147.17;100.00;49863.72;4908702;28;51234;-61
2022/01/02 02:05:14;;;;;;;;;21.25;20.00;;;;;-147.17;100.00;49861.75;5093256;27;51107;-60
2022/01/02 02:07:42;;;;;;;;;23.50;22.25;;;;;-147.17;100.00;49855.84;5073900;27;51231;-61
2022/01/02 02:10:23;;;;;;;;;24.00;24.00;;;;;-147.17;100.00;49840.09;5070921;27;51142;-61
2022/01/02 02:12:51;;;;;;;;;22.00;21.25;;;;;-147.17;100.00;49857.81;5069222;27;51159;-61
2022/01/02 02:15:17;;;;;;;;;20.00;18.00;;;;;-147.17;100.00;49851.91;5085446;27;51140;-61
2022/01/02 02:17:44;;;;;;;;;21.00;20.75;;;;;-147.17;100.00;49867.66;5088766;27;51427;-60
2022/01/02 02:20:21;;;;;;;;;22.75;21.50;;;;;-147.17;100.00;49873.56;5089930;27;50926;-61
2022/01/02 02:22:52;;;;;;;;;24.50;23.00;;;;;-147.17;100.00;49851.91;5074666;27;51746;-61
2022/01/02 02:25:19;;;;;;;;;20.00;19.50;;;;;-147.17;100.00;49871.59;5089546;27;51315;-60
2022/01/02 02:27:55;;;;;;;;;21.75;20.00;;;;;-147.17;100.00;49849.94;5077703;27;51425;-60
2022/01/02 02:30:21;;;;;;;;;20.50;20.50;;;;;-147.17;100.00;49844.03;5089109;27;51256;-59
2022/01/02 02:32:47;;;;;;;;;21.25;20.75;;;;;-147.17;100.00;49861.75;5078174;27;51013;-60
2022/01/02 02:35:13;;;;;;;;;21.50;21.25;;;;;-147.17;100.00;49861.75;5085713;27;51095;-60
2022/01/02 02:37:44;;;;;;;;;21.00;21.00;;;;;-147.17;100.00;49855.84;5088487;27;50894;-60
2022/01/02 02:40:15;;;;;;;;;20.75;20.25;;;;;-147.17;100.00;49844.03;5088881;27;51151;-60
2022/01/02 02:43:04;;;;;;;;;21.50;21.00;;;;;-147.17;100.00;49887.34;5083357;27;51723;-60
2022/01/02 02:51:06;;;;;;;;;21.25;20.50;;;;;-147.17;100.00;49873.56;5069189;27;50946;-61
2022/01/02 02:53:43;;;;;;;;;20.00;18.00;;;;;-147.17;100.00;49863.72;5075919;27;51954;-59
2022/01/02 02:58:46;;;;;;;;;19.50;18.75;;;;;-147.17;100.00;49875.53;5079547;27;51119;-60
2022/01/02 03:01:14;;;;;;;;;19.00;19.00;;;;;-147.17;100.00;49861.75;5089640;27;51048;-61
2022/01/02 03:03:41;;;;;;;;;18.00;18.00;;;;;-147.17;100.00;49875.53;5066729;27;53719;-60
2022/01/02 03:06:07;;;;;;;;;17.75;17.75;;;;;-147.17;100.00;49895.22;5065182;27;51163;-61
2022/01/02 03:08:35;;;;;;;;;17.50;17.25;;;;;-147.17;100.00;49891.28;5067446;28;51467;-61
2022/01/02 03:11:00;;;;;;;;;19.25;18.00;;;;;-147.17;100.00;49859.78;5067411;27;51338;-60
2022/01/02 03:13:29;;;;;;;;;20.75;18.75;;;;;-147.17;100.00;49912.94;5062201;27;51715;-61
2022/01/02 03:15:58;;;;;;;;;18.50;18.50;;;;;-147.17;100.00;49877.50;5056488;28;52379;-61
2022/01/02 03:18:23;;;;;;;;;21.00;21.00;;;;;-147.17;100.00;49899.16;5055471;28;51026;-60
2022/01/02 03:20:48;;;;;;;;;19.00;17.25;;;;;-147.17;100.00;49859.78;5052107;28;51223;-60
2022/01/02 03:23:14;;;;;;;;;19.50;19.50;;;;;-147.17;100.00;49867.66;5045009;28;51070;-61
2022/01/02 03:25:39;;;;;;;;;18.50;17.25;;;;;-147.17;100.00;49899.16;5047101;28;51202;-61
2022/01/02 03:28:05;;;;;;;;;19.50;19.00;;;;;-147.17;100.00;49869.63;5067175;28;50970;-60
2022/01/02 03:30:30;;;;;;;;;16.75;16.00;;;;;-147.17;100.00;49869.63;5040745;28;51109;-60
2022/01/02 03:32:56;;;;;;;;;19.25;18.00;;;;;-147.17;100.00;49883.41;5049754;28;51198;-60
2022/01/02 03:35:21;;;;;;;;;19.50;17.25;;;;;-147.17;100.00;49903.09;5045741;28;51401;-60
2022/01/02 03:37:47;;;;;;;;;14.75;14.75;;;;;-147.17;100.00;49885.38;5052945;28;51205;-60
2022/01/02 03:40:12;;;;;;;;;15.50;15.50;;;;;-147.17;100.00;49895.22;5044365;28;51288;-62
2022/01/02 03:42:38;;;;;;;;;15.00;15.00;;;;;-147.17;100.00;49910.97;5043803;28;53315;-60
2022/01/02 03:45:04;;;;;;;;;14.00;14.00;;;;;-147.17;100.00;49893.25;5042499;28;51148;-60
2022/01/02 03:47:30;;;;;;;;;16.00;14.50;;;;;-147.17;100.00;49895.22;5051861;28;51062;-61
2022/01/02 03:49:57;;;;;;;;;16.67;14.67;;;;;-147.17;100.00;49887.34;5054806;28;51162;-61
2022/01/02 03:52:23;;;;;;;;;17.67;15.00;;;;;-147.17;100.00;49877.50;5049165;28;51371;-61
2022/01/02 03:54:49;;;;;;;;;16.67;14.00;;;;;-147.17;100.00;49881.44;5053454;28;51136;-61
2022/01/02 03:57:14;;;;;;;;;14.00;14.00;;;;;-147.17;100.00;49891.28;5048155;28;51044;-60
2022/01/02 03:59:39;;;;;;;;;14.67;14.67;;;;;-147.17;100.00;49875.53;5055079;28;51085;-61
2022/01/02 04:02:05;;;;;;;;;16.33;14.00;;;;;-147.17;100.00;49903.09;5041336;28;51147;-61
2022/01/02 04:04:30;;;;;;;;;16.75;15.75;;;;;-147.17;100.00;49883.41;5053003;28;50990;-60
2022/01/02 04:06:56;;;;;;;;;15.00;14.00;;;;;-147.17;100.00;49901.13;5038847;28;51236;-61
2022/01/02 04:09:21;;;;;;;;;15.33;14.67;;;;;-147.17;100.00;49887.34;5034653;28;51252;-61
2022/01/02 04:11:47;;;;;;;;;13.00;13.00;;;;;-147.17;100.00;49871.59;5047380;28;51698;-60
2022/01/02 04:14:12;;;;;;;;;15.25;15.25;;;;;-147.17;100.00;49891.28;5040567;28;51038;-59
2022/01/02 04:16:37;;;;;;;;;15.33;14.67;;;;;-147.17;100.00;49885.38;5049462;28;51390;-60
2022/01/02 04:19:03;;;;;;;;;15.00;14.67;;;;;-147.17;100.00;49930.63;5053374;28;51323;-60
2022/01/02 04:21:28;;;;;;;;;17.25;16.00;;;;;-147.17;100.00;49914.91;5049829;28;51438;-59
2022/01/02 04:23:53;;;;;;;;;14.00;14.00;;;;;-147.17;100.00;49938.50;5049002;28;51172;-60
2022/01/02 04:26:19;;;;;;;;;14.33;14.00;;;;;-147.17;100.00;49910.97;5045883;28;50971;-60
2022/01/02 04:28:44;;;;;;;;;11.00;10.75;;;;;-147.17;100.00;49918.84;5049082;28;50910;-60
2022/01/02 04:31:11;;;;;;;;;14.00;14.00;;;;;-147.17;100.00;49928.66;5040468;28;51957;-60
2022/01/02 04:33:36;;;;;;;;;13.00;13.00;;;;;-147.17;100.00;49934.56;5053045;28;51185;-60
2022/01/02 04:36:03;;;;;;;;;13.67;13.00;;;;;-147.17;100.00;49946.38;5048666;28;51163;-60
2022/01/02 04:38:28;;;;;;;;;14.00;14.00;;;;;-147.17;100.00;49932.59;5054002;28;51108;-61
2022/01/02 04:40:54;;;;;;;;;15.00;14.00;;;;;-147.17;100.00;49938.50;5051220;28;51078;-61
2022/01/02 04:43:19;;;;;;;;;15.00;14.00;;;;;-147.17;100.00;49903.09;5044614;28;51113;-61
2022/01/02 04:45:45;;;;;;;;;15.33;15.00;;;;;-147.17;100.00;49930.63;5038792;28;50982;-61
2022/01/02 04:48:10;;;;;;;;;15.33;15.33;;;;;-147.17;100.00;49932.59;5047462;28;52003;-61
2022/01/02 04:50:35;;;;;;;;;13.67;13.00;;;;;-147.17;100.00;49907.03;5050925;28;51020;-61
2022/01/02 04:53:01;;;;;;;;;16.33;15.33;;;;;-147.17;100.00;49952.28;5050698;28;51176;-61
2022/01/02 04:55:26;;;;;;;;;15.50;15.25;;;;;-147.17;100.00;49910.97;5052144;28;51200;-61
2022/01/02 04:57:52;;;;;;;;;15.00;14.33;;;;;-147.17;100.00;49942.44;5052227;28;51015;-61
2022/01/02 05:00:17;;;;;;;;;15.33;14.00;;;;;-147.17;100.00;49918.84;5052244;28;51873;-61
2022/01/02 05:02:42;;;;;;;;;12.00;11.00;;;;;-147.17;100.00;49966.06;5048598;28;51082;-61
2022/01/02 05:05:08;;;;;;;;;17.75;14.25;;;;;-147.17;100.00;49928.66;5052379;28;51129;-60
2022/01/02 05:07:33;;;;;;;;;14.33;14.00;;;;;-147.17;100.00;49916.88;5051387;28;51346;-60
2022/01/02 05:10:00;;;;;;;;;14.67;14.67;;;;;-147.17;100.00;49914.91;5050212;28;52114;-60
2022/01/02 05:12:26;;;;;;;;;13.00;12.00;;;;;-147.17;100.00;49970.00;5051563;28;51167;-60
2022/01/02 05:14:51;;;;;;;;;14.00;13.00;;;;;-147.17;100.00;49932.59;5050787;28;51400;-61
2022/01/02 05:17:16;;;;;;;;;15.00;15.00;;;;;-147.17;100.00;49930.63;5051933;28;50990;-60
2022/01/02 05:19:42;;;;;;;;;13.67;13.00;;;;;-147.17;100.00;49926.69;5052000;28;51118;-60
2022/01/02 05:22:07;;;;;;;;;16.50;15.00;;;;;-147.17;100.00;49930.63;5051239;28;52415;-60
2022/01/02 05:24:32;;;;;;;;;17.33;17.33;;;;;-147.17;100.00;49958.19;5050432;28;51526;-60
2022/01/02 05:26:58;;;;;;;;;14.00;13.67;;;;;-147.17;100.00;49938.50;5050383;28;51445;-61
2022/01/02 05:29:23;;;;;;;;;14.00;14.00;;;;;-147.17;100.00;49950.31;5051573;28;51487;-61
2022/01/02 05:31:49;;;;;;;;;11.67;11.00;;;;;-147.17;100.00;49924.72;5050967;28;51209;-61
2022/01/02 05:34:15;;;;;;;;;12.33;11.67;;;;;-147.17;100.00;49962.13;5047745;28;51103;-61
2022/01/02 05:36:40;;;;;;;;;14.75;14.00;;;;;-147.17;100.00;49960.16;5051392;28;51331;-61
2022/01/02 05:39:06;;;;;;;;;15.67;15.33;;;;;-147.17;100.00;49918.84;5044463;28;52585;-60
2022/01/02 05:41:33;;;;;;;;;14.67;13.00;;;;;-147.17;100.00;49989.69;5048938;28;51116;-61
2022/01/02 05:43:58;;;;;;;;;14.67;12.67;;;;;-147.17;100.00;49950.31;5049664;28;50982;-61
2022/01/02 05:46:24;;;;;;;;;14.67;14.00;;;;;-147.17;100.00;49934.56;5055103;28;51288;-61
2022/01/02 05:48:52;;;;;;;;;12.25;11.75;;;;;-147.17;100.00;49985.75;5051439;28;52931;-61
2022/01/02 05:51:18;;;;;;;;;12.33;11.33;;;;;-147.17;100.00;49971.97;5051574;28;51116;-61
2022/01/02 05:53:43;;;;;;;;;12.00;11.00;;;;;-147.17;100.00;49973.94;5051849;28;51263;-60
2022/01/02 05:56:09;;;;;;;;;11.33;11.33;;;;;-147.17;100.00;49995.59;5050301;28;51425;-61
2022/01/02 05:58:35;;;;;;;;;10.00;10.00;;;;;-147.17;100.00;49987.72;5050960;28;51805;-61
2022/01/02 06:01:00;;;;;;;;;11.33;11.00;;;;;-147.17;100.00;49985.75;5048627;28;50957;-61
2022/01/02 06:03:26;;;;;;;;;11.00;10.67;;;;;-147.17;100.00;50009.38;5050142;28;51220;-62
2022/01/02 06:05:51;;;;;;;;;13.33;12.00;;;;;-147.17;100.00;49973.94;5050740;28;51402;-61
2022/01/02 06:08:16;;;;;;;;;12.00;11.00;;;;;-147.17;100.00;49985.75;5049800;28;52936;-61
2022/01/02 06:10:42;;;;;;;;;12.67;12.67;;;;;-147.17;100.00;49968.03;5047423;28;50974;-61
2022/01/02 06:13:08;;;;;;;;;12.33;11.67;;;;;-147.17;100.00;49993.63;5050401;28;51332;-61
2022/01/02 06:15:34;;;;;;;;;8.67;8.67;;;;;-147.17;100.00;49970.00;5051430;28;51066;-61
2022/01/02 06:18:00;;;;;;;;;10.67;10.33;;;;;-147.17;100.00;50003.47;5048127;28;51956;-61
2022/01/02 06:20:25;;;;;;;;;12.33;12.33;;;;;-147.17;100.00;49956.22;5050360;28;51545;-61
2022/01/02 06:22:53;;;;;;;;;11.33;10.67;;;;;-147.17;100.00;49962.13;5049131;28;51199;-61
2022/01/02 06:25:19;;;;;;;;;11.00;11.00;;;;;-147.17;100.00;49971.97;5051377;28;51409;-61
2022/01/02 06:27:44;;;;;;;;;11.67;11.00;;;;;-147.17;100.00;50009.38;5049198;28;51868;-61
2022/01/02 06:30:10;;;;;;;;;10.00;10.00;;;;;-147.17;100.00;50023.16;5050642;28;51167;-61
2022/01/02 06:32:35;;;;;;;;;12.00;11.33;;;;;-147.17;100.00;49999.53;5048050;28;51184;-61
2022/01/02 06:35:00;;;;;;;;;9.67;9.33;;;;;-147.17;100.00;50009.38;5049017;28;51577;-61
2022/01/02 06:37:26;;;;;;;;;9.33;9.33;;;;;-147.17;100.00;49997.56;5050997;28;50938;-62
2022/01/02 06:39:51;;;;;;;;;9.67;9.00;;;;;-147.17;100.00;50015.28;5049845;28;51210;-61
2022/01/02 06:42:17;;;;;;;;;8.33;8.33;;;;;-147.17;100.00;49989.69;5048305;28;51209;-61
2022/01/02 06:44:42;;;;;;;;;7.33;7.00;;;;;-147.17;100.00;50023.16;5051192;28;51322;-61
2022/01/02 06:47:08;;;;;;;;;8.00;8.00;;;;;-147.17;100.00;49973.94;5050842;28;51001;-61
2022/01/02 06:49:33;;;;;;;;;11.00;10.33;;;;;-147.17;100.00;50025.13;5048602;28;51442;-61
2022/01/02 06:51:59;;;;;;;;;8.67;8.67;;;;;-147.17;100.00;49989.69;5051953;28;51040;-61
2022/01/02 06:54:24;;;;;;;;;10.33;9.67;;;;;-147.17;100.00;49977.88;5054037;28;51279;-61
2022/01/02 06:56:49;;;;;;;;;14.00;12.00;;;;;-147.17;100.00;49997.56;5052106;28;52954;-61
2022/01/02 06:59:15;;;;;;;;;7.00;7.00;;;;;-147.17;100.00;50019.22;5050739;28;51081;-61
2022/01/02 07:01:40;;;;;;;;;13.00;12.00;;;;;-147.17;100.00;49993.63;5052175;28;50934;-60
2022/01/02 07:04:05;;;;;;;;;11.67;11.67;;;;;-147.17;100.00;49989.69;5053756;28;51475;-61
2022/01/02 07:06:31;;;;;;;;;10.67;10.67;;;;;-147.17;100.00;49979.84;5053682;28;51108;-61
2022/01/02 07:08:56;;;;;;;;;9.33;9.33;;;;;-147.17;100.00;49995.59;5049287;28;51677;-61
2022/01/02 07:11:21;;;;;;;;;13.00;10.00;;;;;-147.17;100.00;49993.63;5052888;28;51077;-61
2022/01/02 07:13:47;;;;;;;;;13.33;12.67;;;;;-147.17;100.00;49958.19;5054202;28;51195;-61
2022/01/02 07:16:12;;;;;;;;;12.00;11.00;;;;;-147.17;100.00;49981.81;5052375;28;51126;-61
2022/01/02 07:18:37;;;;;;;;;9.33;9.33;;;;;-147.17;100.00;50007.41;5053309;28;51112;-61
2022/01/02 07:21:03;;;;;;;;;10.33;8.67;;;;;-147.17;100.00;49999.53;5052206;28;51124;-61
2022/01/02 07:23:28;;;;;;;;;12.00;11.00;;;;;-147.17;100.00;49966.06;5054108;28;51175;-61
2022/01/02 07:25:54;;;;;;;;;9.33;9.33;;;;;-147.17;100.00;49960.16;5051127;28;53988;-61
2022/01/02 07:28:21;;;;;;;;;12.67;12.67;;;;;-147.17;100.00;49956.22;5053822;28;51186;-61
2022/01/02 07:30:46;;;;;;;;;10.67;10.67;;;;;-147.17;100.00;49956.22;5051740;28;51052;-61
2022/01/02 07:33:12;;;;;;;;;11.33;11.00;;;;;-147.17;100.00;49926.69;5047866;28;51382;-61
2022/01/02 07:35:38;;;;;;;;;11.67;11.00;;;;;-147.17;100.00;49966.06;5049638;28;51992;-61
2022/01/02 07:38:03;;;;;;;;;8.67;8.67;;;;;-147.17;100.00;49950.31;5053245;28;51009;-61
2022/01/02 07:40:30;;;;;;;;;10.33;10.33;;;;;-147.17;100.00;49954.25;5052760;28;51093;-61
2022/01/02 07:42:55;;;;;;;;;11.67;10.00;;;;;-147.17;100.00;49966.06;5052895;28;51595;-62
2022/01/02 07:45:21;;;;;;;;;15.00;14.00;;;;;-147.17;100.00;49973.94;5052521;28;51078;-61
2022/01/02 07:47:47;;;;;;;;;11.50;11.50;;;;;-147.17;100.00;49944.41;5050730;28;51009;-60
2022/01/02 07:50:13;;;;;;;;;11.33;11.33;;;;;-147.17;100.00;49926.69;5052751;28;51234;-61
2022/01/02 07:52:38;;;;;;;;;8.00;7.67;;;;;-147.17;100.00;49938.50;5045249;28;51127;-60
2022/01/02 07:55:04;;;;;;;;;10.00;9.67;;;;;-147.17;100.00;49950.31;5050966;28;51413;-59
2022/01/02 07:57:29;;;;;;;;;14.33;10.67;;;;;-147.17;100.00;49964.09;5048199;28;51145;-59
2022/01/02 07:59:55;;;;;;;;;10.67;9.00;;;;;-147.17;100.00;49940.47;5060468;28;50966;-59
2022/01/02 08:02:20;;;;;;;;;9.67;8.67;;;;;-147.17;100.00;49942.44;5048431;28;51059;-59
2022/01/02 08:04:46;;;;;;;;;12.67;12.00;;;;;-147.17;100.00;49934.56;5047969;28;50982;-59
2022/01/02 08:07:11;;;;;;;;;9.00;9.00;;;;;-147.17;100.00;49944.41;5051004;28;51076;-59
2022/01/02 08:09:36;;;;;;;;;12.00;12.00;;;;;-147.17;100.00;49918.84;5052059;28;50891;-59
2022/01/02 08:12:02;;;;;;;;;10.67;9.00;;;;;-147.17;100.00;49926.69;5048683;28;51249;-58
2022/01/02 08:14:27;;;;;;;;;12.00;11.67;;;;;-147.17;100.00;49934.56;5049604;28;52312;-58
2022/01/02 08:16:53;;;;;;;;;11.33;9.67;;;;;-147.17;100.00;49887.34;5044302;28;51137;-60
2022/01/02 08:19:18;;;;;;;;;12.33;11.33;;;;;-147.17;100.00;49897.19;5047036;28;51191;-60
2022/01/02 08:21:44;;;;;;;;;10.00;9.00;;;;;-147.17;100.00;49893.25;5042954;28;51442;-59
2022/01/02 08:24:09;;;;;;;;;12.00;10.33;;;;;-147.17;100.00;49863.72;5045161;28;54031;-59
2022/01/02 08:26:35;;;;;;;;;10.00;10.00;;;;;-147.17;100.00;49867.66;5044280;28;51113;-60
2022/01/02 08:29:00;;;;;;;;;11.67;10.67;;;;;-147.17;100.00;49855.84;5044732;28;51157;-62
2022/01/02 08:31:30;;;;;;;;;12.67;12.33;;;;;-147.17;100.00;49810.56;5053659;28;51198;-62
2022/01/02 08:33:56;;;;;;;;;10.33;9.00;;;;;-147.17;100.00;49883.41;5047655;28;51922;-61
2022/01/02 08:36:22;;;;;;;;;11.00;10.33;;;;;-147.17;100.00;49871.59;5044291;28;51931;-60
2022/01/02 08:38:48;;;;;;;;;11.00;9.67;;;;;-147.17;100.00;49847.97;5059666;27;51477;-61
2022/01/02 08:41:17;;;;;;;;;8.00;7.00;;;;;-147.17;100.00;49863.72;5048334;28;51389;-61
2022/01/02 08:43:43;;;;;;;;;9.67;9.67;;;;;-147.17;100.00;49863.72;5045888;28;52466;-62
2022/01/02 08:46:09;;;;;;;;;8.33;8.33;;;;;-147.17;100.00;49895.22;5056046;28;51137;-61
2022/01/02 08:48:35;;;;;;;;;14.67;12.33;;;;;-147.17;100.00;49855.84;5052324;28;51311;-62
2022/01/02 08:51:00;;;;;;;;;10.33;10.00;;;;;-147.17;100.00;49820.41;5050470;28;51247;-59
2022/01/02 08:53:27;;;;;;;;;13.33;12.33;;;;;-147.17;100.00;49859.78;5055204;28;51069;-60
2022/01/02 08:55:54;;;;;;;;;15.67;14.67;;;;;-147.17;100.00;49828.28;5051713;28;51123;-62
2022/01/02 08:58:19;;;;;;;;;15.00;14.00;;;;;-147.17;100.00;49820.41;5054234;28;51228;-60
2022/01/02 09:00:45;;;;;;;;;16.00;13.67;;;;;-147.17;100.00;49855.84;5051998;28;51015;-61
2022/01/02 09:03:11;;;;;;;;;15.00;14.00;;;;;-147.17;100.00;49840.09;5057091;28;51349;-62
2022/01/02 09:05:37;;;;;;;;;10.00;9.00;;;;;-147.17;100.00;49828.28;5056334;28;51191;-61
2022/01/02 09:08:02;;;;;;;;;12.00;11.33;;;;;-147.17;100.00;49857.81;5053154;28;51615;-63
2022/01/02 09:10:28;;;;;;;;;15.67;14.33;;;;;-147.17;100.00;49824.34;5049522;28;51224;-62
2022/01/02 09:12:53;;;;;;;;;15.00;13.00;;;;;-147.17;100.00;49840.09;5048942;28;52169;-62
2022/01/02 09:15:18;;;;;;;;;13.67;11.67;;;;;-147.17;100.00;49846.00;5055720;28;51445;-59
2022/01/02 09:17:44;;;;;;;;;10.33;10.00;;;;;-147.17;100.00;49844.03;5046646;28;51098;-61
2022/01/02 09:20:10;;;;;;;;;15.67;13.33;;;;;-147.17;100.00;49844.03;5048738;28;51213;-61
2022/01/02 09:22:39;;;;;;;;;13.33;12.00;;;;;-147.17;100.00;49796.78;5051020;28;51242;-59
2022/01/02 09:25:06;;;;;;;;;12.00;11.67;;;;;-147.17;100.00;49800.72;5064544;27;51274;-60
2022/01/02 09:27:32;;;;;;;;;11.33;11.00;;;;;-147.17;100.00;49826.31;5042330;28;51252;-59
2022/01/02 09:29:57;;;;;;;;;11.33;11.33;;;;;-147.17;100.00;49844.03;5061528;27;51477;-60
2022/01/02 09:32:23;;;;;;;;;9.67;9.67;;;;;-147.17;100.00;49790.88;5038160;28;51574;-59
2022/01/02 09:34:49;;;;;;;;;12.67;10.00;;;;;-147.17;100.00;49798.75;5060122;27;52612;-59
2022/01/02 09:37:14;;;;;;;;;10.00;9.00;;;;;-147.17;100.00;49796.78;5046065;28;51265;-60
2022/01/02 09:39:40;;;;;;;;;12.00;12.00;;;;;-147.17;100.00;49812.53;5046087;28;51190;-61
2022/01/02 09:42:05;;;;;;;;;10.00;9.33;;;;;-147.17;100.00;49796.78;5050366;28;52205;-60
2022/01/02 09:44:32;;;;;;;;;11.00;11.00;;;;;-147.17;100.00;49818.44;5050091;28;51077;-60
2022/01/02 09:46:58;;;;;;;;;10.00;9.00;;;;;-147.17;100.00;49788.91;5049078;28;51224;-60
2022/01/02 09:49:24;;;;;;;;;11.00;10.67;;;;;-147.17;100.00;49796.78;5046113;28;51046;-60
2022/01/02 09:51:50;;;;;;;;;9.00;9.00;;;;;-147.17;100.00;49810.56;5049089;28;52016;-59
2022/01/02 09:54:15;;;;;;;;;11.67;11.33;;;;;-147.17;100.00;49846.00;5050072;28;51069;-60
2022/01/02 09:56:40;;;;;;;;;12.00;10.00;;;;;-147.17;100.00;49769.25;5046098;28;51164;-60
2022/01/02 09:59:06;;;;;;;;;13.33;12.33;;;;;-147.17;100.00;49804.66;5022895;28;51233;-60
2022/01/02 10:01:32;;;;;;;;;10.67;10.00;;;;;-147.17;100.00;49802.69;5033566;28;51735;-61
2022/01/02 10:03:59;;;;;;;;;10.00;10.00;;;;;-147.17;100.00;49804.66;5050414;28;51238;-61
2022/01/02 10:06:53;;;;;;;;;11.00;10.33;;;;;-147.17;100.00;49796.78;5052024;28;51041;-61
2022/01/02 10:09:38;;;;;;;;;10.00;9.00;;;;;-147.17;100.00;49792.84;5044665;28;51201;-61
2022/01/02 10:12:22;;;;;;;;;12.33;11.00;;;;;-147.17;100.00;49737.75;5049734;28;51896;-60
2022/01/02 10:15:06;;;;;;;;;8.33;8.33;;;;;-147.17;100.00;49802.69;5045728;28;51283;-60
2022/01/02 10:17:58;;;;;;;;;7.67;7.33;;;;;-147.17;100.00;49806.63;5046394;28;51497;-60
2022/01/02 10:20:28;;;;;;;;;10.00;9.00;;;;;-147.17;100.00;49842.06;5050002;28;51225;-60
2022/01/02 10:23:03;;;;;;;;;12.00;10.67;;;;;-147.17;100.00;49832.22;5050107;28;53001;-60
2022/01/02 10:25:48;;;;;;;;;7.00;6.00;;;;;-147.17;100.00;49822.38;5045144;28;51198;-60
2022/01/02 10:28:36;;;;;;;;;8.00;8.00;;;;;-147.17;100.00;49853.88;5047011;28;51232;-59
2022/01/02 10:31:09;;;;;;;;;12.00;10.67;;;;;-147.17;100.00;49792.84;5040611;28;51108;-60
2022/01/02 10:33:52;;;;;;;;;8.33;8.00;;;;;-147.17;100.00;49851.91;5046696;28;53881;-60
2022/01/02 10:36:30;;;;;;;;;10.67;10.00;;;;;-147.17;100.00;49899.16;5043956;28;51227;-61
2022/01/02 10:39:09;;;;;;;;;10.00;9.00;;;;;-147.17;100.00;49881.44;5050059;28;51232;-60
2022/01/02 10:41:46;;;;;;;;;8.00;8.00;;;;;-147.17;100.00;49879.47;5048963;28;51263;-60
2022/01/02 10:44:26;;;;;;;;;8.00;7.33;;;;;-147.17;100.00;49901.13;5051851;28;52928;-60
2022/01/02 10:47:17;;;;;;;;;8.33;8.00;;;;;-147.17;100.00;49899.16;5050997;28;51325;-60
2022/01/02 10:49:59;;;;;;;;;8.00;7.67;;;;;-147.17;100.00;49889.31;5046083;28;51378;-60
2022/01/02 10:52:27;;;;;;;;;6.67;5.67;;;;;-147.17;100.00;49930.63;5040631;28;51199;-60
2022/01/02 10:54:55;;;;;;;;;7.00;6.00;;;;;-147.17;100.00;49954.25;5053006;28;52205;-59
2022/01/02 10:57:20;;;;;;;;;6.67;6.67;;;;;-147.17;100.00;49946.38;5045832;28;51209;-60
2022/01/02 10:59:46;;;;;;;;;8.67;7.67;;;;;-147.17;100.00;49895.22;5049011;28;51028;-59
2022/01/02 11:02:13;;;;;;;;;11.00;9.67;;;;;-147.17;100.00;49891.28;5054517;28;50946;-60
2022/01/02 11:04:48;;;;;;;;;5.33;5.33;;;;;-147.17;100.00;49901.13;5054740;28;51802;-60
2022/01/02 11:07:19;;;;;;;;;8.67;7.00;;;;;-147.17;100.00;49877.50;5052788;28;51042;-60
2022/01/02 11:09:46;;;;;;;;;7.00;7.00;;;;;-147.17;100.00;49901.13;5055219;28;51183;-60